Cuntis, Spain
Current Conditions -  °F | °C
As of 9:00 PM on Thursday 18 Dec 2014 (Local Time) from LEST Reporting Station
Broken Clouds Broken Clouds  
Wind Chill: 48°   Ceiling: 2100
Heat Index: 48°   Visibility: 6mi
Dew Point: 45°   Wind: 0mph
Humidity: 87%   Direction: NA
Pressure: 30.48"   Gusts: NA
Location:  42.63°N, 8.56°W
Report Text: LEST 182000Z 00000KT 9999 BKN021 09/07 Q1032 NOSIG
Loading
Personal Weather Stations






























Interactive Weather Map New forecast layout! Learn more

10-Day Weather Forecast

Advertisements
Track Severe Weather on mobile